Time;durP1;ratioP1;P1;durP2;ratioP2;P2;SDS_P1;SDS_P2;PMS_P1;PMS_P2;Temp;Humidity;BMP_temperature;BMP_pressure;BME280_temperature;BME280_humidity;BME280_pressure;Samples;Min_cycle;Max_cycle;Signal;HPM_P1;HPM_P2
2021/07/07 00:00:28;;;;;;;7.60;5.33;;;;;;;18.35;100.00;100644.93;1594697;88;21093;-86
2021/07/07 00:02:56;;;;;;;8.68;5.78;;;;;;;18.34;100.00;100644.63;1619707;88;21096;-87
2021/07/07 00:05:25;;;;;;;6.37;5.67;;;;;;;18.32;100.00;100648.39;1622211;87;21606;-89
2021/07/07 00:07:53;;;;;;;6.25;5.15;;;;;;;18.30;100.00;100641.98;1593158;88;21560;-86
2021/07/07 00:10:32;;;;;;;;;;;;;;;;;;;;;
2021/07/07 00:12:58;;;;;;;7.08;5.33;;;;;;;18.29;100.00;100642.48;1531934;88;21112;-91
2021/07/07 00:15:37;;;;;;;;;;;;;;;;;;;;;
2021/07/07 00:18:00;;;;;;;6.93;5.93;;;;;;;18.31;100.00;100642.81;1507831;92;21670;-90
2021/07/07 00:20:42;;;;;;;10.58;5.40;;;;;;;18.32;100.00;100651.87;1585912;88;21174;-88
2021/07/07 00:22:59;;;;;;;7.12;5.35;;;;;;;18.33;100.00;100648.72;1561242;89;21098;-86
2021/07/07 00:25:26;;;;;;;8.58;5.25;;;;;;;18.32;100.00;100651.87;1586505;88;21068;-88
2021/07/07 00:27:53;;;;;;;6.47;5.20;;;;;;;18.31;100.00;100642.81;1563327;88;21210;-85
2021/07/07 00:30:33;;;;;;;7.58;5.20;;;;;;;18.29;100.00;100653.50;1591922;90;21179;-87
2021/07/07 00:32:56;;;;;;;6.28;5.03;;;;;;;18.27;100.00;100648.41;1584089;90;21342;-86
2021/07/07 00:35:25;;;;;;;8.83;5.47;;;;;;;18.26;100.00;100659.12;1566185;90;21136;-87
2021/07/07 00:37:52;;;;;;;6.00;5.00;;;;;;;18.25;100.00;100658.28;1563617;90;21193;-90
2021/07/07 00:40:20;;;;;;;7.90;4.87;;;;;;;18.25;100.00;100661.42;1563354;90;21112;-88
2021/07/07 00:42:49;;;;;;;7.22;5.15;;;;;;;18.24;100.00;100657.95;1563367;90;21224;-88
2021/07/07 00:45:16;;;;;;;5.80;4.50;;;;;;;18.24;100.00;100663.22;1562368;90;21087;-89
2021/07/07 00:47:45;;;;;;;8.98;5.10;;;;;;;18.25;100.00;100662.75;1563769;90;21166;-87
2021/07/07 00:50:16;;;;;;;6.53;4.90;;;;;;;18.23;100.00;100662.89;1563016;89;21115;-89
2021/07/07 00:52:44;;;;;;;9.88;4.62;;;;;;;18.23;100.00;100661.57;1564886;90;21195;-92
2021/07/07 00:55:16;;;;;;;6.30;4.53;;;;;;;18.23;100.00;100660.76;1558909;90;21207;-88
2021/07/07 00:57:44;;;;;;;8.00;4.85;;;;;;;18.21;100.00;100660.09;1557848;90;21119;-90
2021/07/07 01:00:15;;;;;;;5.58;5.17;;;;;;;18.20;100.00;100663.23;1560102;89;22192;-85
2021/07/07 01:02:45;;;;;;;5.95;4.70;;;;;;;18.18;100.00;100665.20;1562279;90;21110;-90
2021/07/07 01:05:29;;;;;;;;;;;;;;;;;;;;;
2021/07/07 01:07:56;;;;;;;6.53;4.78;;;;;;;18.15;100.00;100662.07;1438101;96;21155;-87
2021/07/07 01:10:37;;;;;;;;;;;;;;;;;;;;;
2021/07/07 01:13:02;;;;;;;5.72;4.80;;;;;;;18.11;100.00;100665.02;1417532;95;21124;-87
2021/07/07 01:15:30;;;;;;;5.10;4.60;;;;;;;18.11;100.00;100670.80;1514283;92;22022;-87
2021/07/07 01:17:59;;;;;;;7.80;4.65;;;;;;;18.11;100.00;100674.75;1515566;93;21127;-91
2021/07/07 01:20:28;;;;;;;5.33;4.80;;;;;;;18.10;100.00;100671.78;1498434;93;21098;-87
2021/07/07 01:23:06;;;;;;;6.70;4.83;;;;;;;18.11;100.00;100673.44;1508064;92;21263;-87
2021/07/07 01:25:58;;;;;;;;;;;;;;;;;;;;;
2021/07/07 01:28:32;;;;;;;;;;;;;;;;;;;;;
2021/07/07 01:30:58;;;;;;;5.85;4.28;;;;;;;18.12;100.00;100680.36;1495838;91;21603;-89
2021/07/07 01:33:28;;;;;;;6.33;4.45;;;;;;;18.11;100.00;100685.30;1522818;92;21167;-87
2021/07/07 01:35:57;;;;;;;6.75;4.37;;;;;;;18.11;100.00;100683.97;1506814;93;21134;-88
2021/07/07 01:38:26;;;;;;;5.47;4.30;;;;;;;18.08;100.00;100682.50;1545808;88;21024;-91
2021/07/07 01:41:04;;;;;;;7.75;4.72;;;;;;;18.08;100.00;100689.56;1543433;88;21511;-88
2021/07/07 01:43:30;;;;;;;7.83;4.87;;;;;;;18.06;100.00;100685.78;1555640;88;21571;-87
2021/07/07 01:45:58;;;;;;;6.10;5.03;;;;;;;18.07;100.00;100694.49;1575397;88;21139;-89
2021/07/07 01:48:54;;;;;;;;;;;;;;;;;;;;;
2021/07/07 01:51:40;;;;;;;;;;;;;;;;;;;;;
2021/07/07 01:54:22;;;;;;;;;;;;;;;;;;;;;
2021/07/07 01:57:37;;;;;;;6.70;5.30;;;;;;;18.01;100.00;100696.47;1319584;106;21631;-88
2021/07/07 02:00:05;;;;;;;6.50;4.67;;;;;;;17.98;100.00;100702.89;1331042;103;21257;-88
2021/07/07 02:02:32;;;;;;;7.97;5.00;;;;;;;17.92;100.00;100697.73;1379558;100;21195;-88
2021/07/07 02:04:59;;;;;;;7.10;5.10;;;;;;;17.87;100.00;100701.36;1408674;100;21621;-84
2021/07/07 02:07:26;;;;;;;5.75;5.08;;;;;;;17.82;100.00;100706.30;1554830;87;21089;-90
2021/07/07 02:09:54;;;;;;;6.95;5.17;;;;;;;17.78;100.00;100703.16;1590335;88;21285;-86
2021/07/07 02:12:21;;;;;;;5.40;4.97;;;;;;;17.76;100.00;100707.76;1595158;89;21589;-87
2021/07/07 02:14:48;;;;;;;6.20;5.03;;;;;;;17.73;100.00;100707.25;1570289;89;21113;-89
2021/07/07 02:17:15;;;;;;;6.15;5.45;;;;;;;17.71;100.00;100711.84;1601086;88;21057;-88
2021/07/07 02:19:44;;;;;;;6.95;5.03;;;;;;;17.69;100.00;100715.97;1605834;88;21058;-86
2021/07/07 02:22:11;;;;;;;6.05;5.03;;;;;;;17.64;100.00;100709.02;1573867;88;21624;-87
2021/07/07 02:24:38;;;;;;;9.08;5.40;;;;;;;17.59;100.00;100710.81;1600647;88;21136;-83
2021/07/07 02:27:06;;;;;;;8.03;5.62;;;;;;;17.56;100.00;100713.78;1599677;87;21655;-86
2021/07/07 02:29:34;;;;;;;11.15;5.80;;;;;;;17.55;100.00;100711.28;1572110;89;21054;-91
2021/07/07 02:32:02;;;;;;;6.12;5.33;;;;;;;17.52;100.00;100716.38;1578677;89;21013;-85
2021/07/07 02:34:29;;;;;;;5.78;5.05;;;;;;;17.50;100.00;100708.66;1595481;89;21726;-85
2021/07/07 02:36:56;;;;;;;8.28;5.20;;;;;;;17.49;100.00;100707.50;1579561;89;21597;-83
2021/07/07 02:39:23;;;;;;;5.97;5.37;;;;;;;17.47;100.00;100719.48;1564715;88;21139;-86
2021/07/07 02:41:52;;;;;;;6.28;5.12;;;;;;;17.45;100.00;100719.31;1625740;87;21499;-83
2021/07/07 02:44:19;;;;;;;7.58;5.95;;;;;;;17.45;100.00;100721.95;1622597;87;21528;-84
2021/07/07 02:46:46;;;;;;;6.65;5.80;;;;;;;17.44;100.00;100725.08;1604337;88;21542;-86
2021/07/07 02:49:15;;;;;;;6.62;5.53;;;;;;;17.44;100.00;100720.30;1623973;87;21480;-89
2021/07/07 02:51:43;;;;;;;8.20;5.30;;;;;;;17.43;100.00;100720.80;1597348;87;21424;-87
2021/07/07 02:54:10;;;;;;;7.00;5.65;;;;;;;17.46;100.00;100727.55;1621095;87;21535;-91
2021/07/07 02:56:37;;;;;;;5.67;5.03;;;;;;;17.46;100.00;100724.92;1629624;87;21701;-88
2021/07/07 02:59:04;;;;;;;8.45;5.60;;;;;;;17.46;100.00;100732.34;1632958;86;21202;-86
2021/07/07 03:01:31;;;;;;;6.37;5.67;;;;;;;17.46;100.00;100736.77;1609628;88;21186;-87
2021/07/07 03:03:58;;;;;;;8.18;5.72;;;;;;;17.45;100.00;100735.11;1634329;87;21112;-87
2021/07/07 03:06:25;;;;;;;6.92;5.30;;;;;;;17.46;100.00;100734.12;1580672;88;21542;-89
2021/07/07 03:08:54;;;;;;;6.78;5.33;;;;;;;17.46;100.00;100743.34;1605897;88;21563;-88
2021/07/07 03:11:22;;;;;;;11.35;5.47;;;;;;;17.46;100.00;100742.03;1591112;88;21076;-89
2021/07/07 03:13:49;;;;;;;6.75;5.72;;;;;;;17.45;100.00;100743.84;1534493;91;22429;-85
2021/07/07 03:16:16;;;;;;;6.50;5.72;;;;;;;17.47;100.00;100745.00;1538978;91;21471;-85
2021/07/07 03:18:44;;;;;;;9.65;5.75;;;;;;;17.49;100.00;100746.98;1558971;90;21529;-84
2021/07/07 03:21:11;;;;;;;8.68;6.05;;;;;;;17.51;100.00;100748.95;1539874;90;21014;-84
2021/07/07 03:23:39;;;;;;;6.50;5.40;;;;;;;17.53;100.00;100750.94;1536911;91;21149;-87
2021/07/07 03:26:06;;;;;;;6.35;5.67;;;;;;;17.55;100.00;100746.83;1555415;89;21248;-86
2021/07/07 03:28:33;;;;;;;7.95;5.50;;;;;;;17.53;100.00;100743.05;1581795;90;21081;-87
2021/07/07 03:31:00;;;;;;;8.38;6.20;;;;;;;17.53;100.00;100750.94;1582508;89;21631;-85
2021/07/07 03:33:27;;;;;;;7.60;5.20;;;;;;;17.53;100.00;100754.89;1587874;89;21106;-88
2021/07/07 03:35:54;;;;;;;8.73;6.00;;;;;;;17.55;100.00;100758.20;1590740;89;21061;-85
2021/07/07 03:38:21;;;;;;;6.22;5.60;;;;;;;17.58;100.00;100757.89;1584521;89;21181;-89
2021/07/07 03:40:47;;;;;;;6.78;5.08;;;;;;;17.62;100.00;100764.98;1578934;88;21033;-87
2021/07/07 03:43:14;;;;;;;6.80;5.17;;;;;;;17.64;100.00;100766.47;1583427;90;22225;-88
2021/07/07 03:45:41;;;;;;;7.00;5.37;;;;;;;17.66;100.00;100772.41;1558902;90;21081;-83
2021/07/07 03:48:09;;;;;;;8.63;6.00;;;;;;;17.68;100.00;100770.08;1559968;90;21143;-85
2021/07/07 03:50:37;;;;;;;7.58;5.85;;;;;;;17.68;100.00;100774.03;1561640;90;21605;-84
2021/07/07 03:53:06;;;;;;;11.60;5.67;;;;;;;17.70;100.00;100778.66;1556885;90;21154;-91
2021/07/07 03:55:34;;;;;;;10.50;5.83;;;;;;;17.70;100.00;100779.50;1556533;89;21593;-87
2021/07/07 03:58:02;;;;;;;8.45;6.00;;;;;;;17.74;100.00;100777.38;1601769;87;21680;-88
2021/07/07 04:00:30;;;;;;;6.60;5.92;;;;;;;17.76;100.00;100777.55;1592119;88;21627;-88
2021/07/07 04:02:58;;;;;;;6.47;5.67;;;;;;;17.78;100.00;100778.69;1576938;87;21845;-88
2021/07/07 04:05:27;;;;;;;6.85;6.20;;;;;;;17.80;100.00;100785.95;1580900;90;21107;-86
2021/07/07 04:07:55;;;;;;;9.23;5.83;;;;;;;17.83;100.00;100784.30;1583135;89;21097;-86
2021/07/07 04:10:23;;;;;;;8.25;5.92;;;;;;;17.87;100.00;100783.48;1550599;89;21113;-88
2021/07/07 04:12:51;;;;;;;6.80;6.10;;;;;;;17.89;100.00;100784.16;1578738;88;21133;-87
2021/07/07 04:15:19;;;;;;;14.07;6.50;;;;;;;17.90;100.00;100782.70;1585393;88;20982;-85
2021/07/07 04:17:47;;;;;;;7.62;5.80;;;;;;;17.93;100.00;100781.05;1555553;90;21129;-89
2021/07/07 04:20:18;;;;;;;6.67;5.97;;;;;;;17.95;100.00;100788.34;1572889;89;21245;-89
2021/07/07 04:22:46;;;;;;;6.22;5.70;;;;;;;17.99;100.00;100789.35;1579463;89;21216;-87
2021/07/07 04:25:14;;;;;;;9.08;6.40;;;;;;;18.04;100.00;100796.27;1575968;89;21188;-90
2021/07/07 04:27:43;;;;;;;7.65;6.20;;;;;;;18.06;100.00;100790.36;1570623;90;21330;-89
2021/07/07 04:30:15;;;;;;;10.38;6.22;;;;;;;18.07;100.00;100793.30;1586780;88;21133;-90
2021/07/07 04:32:43;;;;;;;6.40;5.75;;;;;;;18.08;100.00;100794.95;1566523;89;21122;-89
2021/07/07 04:35:11;;;;;;;6.95;5.65;;;;;;;18.08;100.00;100797.59;1563148;90;21067;-84
2021/07/07 04:37:38;;;;;;;10.18;5.83;;;;;;;18.09;100.00;100800.08;1558011;90;21112;-87
2021/07/07 04:40:09;;;;;;;11.25;6.42;;;;;;;18.11;100.00;100802.05;1585887;88;21129;-85
2021/07/07 04:42:37;;;;;;;7.50;6.80;;;;;;;18.14;100.00;100800.92;1573240;88;21212;-85
2021/07/07 04:45:07;;;;;;;7.10;5.90;;;;;;;18.17;100.00;100807.67;1608077;87;21133;-88
2021/07/07 04:47:35;;;;;;;11.08;6.33;;;;;;;18.18;100.00;100808.83;1584361;89;21488;-89
2021/07/07 04:50:05;;;;;;;8.10;6.12;;;;;;;18.19;100.00;100810.48;1564113;90;21123;-87
2021/07/07 04:52:32;;;;;;;7.20;6.43;;;;;;;18.20;100.00;100812.12;1581444;89;21224;-86
2021/07/07 04:54:59;;;;;;;8.13;6.55;;;;;;;18.22;100.00;100815.44;1580805;88;20978;-86
2021/07/07 04:57:27;;;;;;;7.20;6.55;;;;;;;18.24;100.00;100817.91;1593274;89;21097;-85
2021/07/07 04:59:53;;;;;;;8.78;6.35;;;;;;;18.24;100.00;100817.91;1582413;90;22111;-86
2021/07/07 05:02:20;;;;;;;6.35;5.75;;;;;;;18.25;100.00;100824.83;1606079;87;21108;-86
2021/07/07 05:04:50;;;;;;;8.25;6.22;;;;;;;18.27;100.00;100822.36;1585161;89;21242;-87
2021/07/07 05:07:18;;;;;;;6.92;6.20;;;;;;;18.33;100.00;100824.00;1579247;89;21157;-86
2021/07/07 05:09:45;;;;;;;7.83;5.53;;;;;;;18.36;100.00;100825.83;1582144;90;21069;-85
2021/07/07 05:12:12;;;;;;;9.28;6.30;;;;;;;18.39;100.00;100824.67;1561092;89;21107;-84
2021/07/07 05:14:39;;;;;;;8.13;6.53;;;;;;;18.42;100.00;100833.11;1585370;89;21088;-87
2021/07/07 05:17:06;;;;;;;7.05;6.30;;;;;;;18.47;100.00;100836.55;1583906;88;21917;-85
2021/07/07 05:19:33;;;;;;;9.88;6.78;;;;;;;18.48;100.00;100839.53;1590506;88;21613;-85
2021/07/07 05:22:02;;;;;;;10.50;6.70;;;;;;;18.48;100.00;100841.34;1588392;88;21092;-86
2021/07/07 05:24:30;;;;;;;8.65;6.65;;;;;;;18.45;100.00;100847.27;1549772;90;21128;-87
2021/07/07 05:27:00;;;;;;;11.15;6.90;;;;;;;18.45;100.00;100851.23;1585336;88;21088;-89
2021/07/07 05:29:28;;;;;;;8.28;6.72;;;;;;;18.47;100.00;100856.33;1587892;88;21168;-87
2021/07/07 05:31:54;;;;;;;7.60;6.90;;;;;;;18.49;100.00;100852.23;1581694;89;20996;-85
2021/07/07 05:34:21;;;;;;;9.28;7.40;;;;;;;18.48;100.00;100854.03;1582706;90;21080;-86
2021/07/07 05:36:48;;;;;;;7.65;6.95;;;;;;;18.49;100.00;100859.64;1583557;89;21026;-86
2021/07/07 05:39:15;;;;;;;9.70;6.87;;;;;;;18.51;100.00;100862.94;1558338;89;21174;-90
2021/07/07 05:41:42;;;;;;;7.83;6.70;;;;;;;18.56;100.00;100864.59;1591706;88;22032;-88
2021/07/07 05:44:09;;;;;;;7.90;7.15;;;;;;;18.59;100.00;100873.51;1545679;90;21524;-88
2021/07/07 05:46:36;;;;;;;10.70;6.90;;;;;;;18.62;100.00;100872.86;1591449;88;21098;-88
2021/07/07 05:49:03;;;;;;;7.37;6.67;;;;;;;18.63;100.00;100876.64;1561008;90;21143;-88
2021/07/07 05:51:30;;;;;;;9.03;7.00;;;;;;;18.65;100.00;100879.11;1599467;87;21148;-86
2021/07/07 05:53:57;;;;;;;14.60;6.97;;;;;;;18.66;100.00;100880.29;1555584;90;21826;-86
2021/07/07 05:56:24;;;;;;;9.60;6.47;;;;;;;18.69;100.00;100881.27;1606664;86;20969;-88
2021/07/07 05:58:51;;;;;;;7.87;7.10;;;;;;;18.73;100.00;100878.65;1585398;88;21013;-86
2021/07/07 06:01:18;;;;;;;7.55;6.65;;;;;;;18.79;100.00;100885.06;1562917;90;21072;-88
2021/07/07 06:03:45;;;;;;;8.13;6.78;;;;;;;18.84;100.00;100881.94;1562559;90;21077;-87
2021/07/07 06:06:12;;;;;;;8.28;6.62;;;;;;;18.87;100.00;100888.22;1584745;90;21828;-86
2021/07/07 06:08:39;;;;;;;8.60;7.25;;;;;;;18.87;100.00;100886.39;1587461;90;21532;-85
2021/07/07 06:11:06;;;;;;;9.63;7.05;;;;;;;18.91;100.00;100885.57;1583062;89;21017;-84
2021/07/07 06:13:33;;;;;;;14.73;7.72;;;;;;;18.96;100.00;100887.75;1570241;88;21053;-85
2021/07/07 06:16:01;;;;;;;7.90;7.08;;;;;;;19.01;100.00;100893.38;1560138;90;21236;-85
2021/07/07 06:18:28;;;;;;;9.70;7.42;;;;;;;19.06;100.00;100893.23;1563355;90;21137;-85
2021/07/07 06:20:59;;;;;;;7.87;6.78;;;;;;;19.12;100.00;100890.40;1596750;88;21097;-86
2021/07/07 06:23:26;;;;;;;9.40;6.90;;;;;;;19.15;100.00;100895.87;1579572;87;21154;-88
2021/07/07 06:25:53;;;;;;;10.98;7.17;;;;;;;19.19;100.00;100903.27;1586840;88;21090;-85
2021/07/07 06:28:19;;;;;;;28.07;7.97;;;;;;;19.22;100.00;100903.45;1603024;87;21143;-85
2021/07/07 06:30:46;;;;;;;10.93;7.35;;;;;;;19.26;100.00;100907.39;1613827;88;21814;-85
2021/07/07 06:33:13;;;;;;;11.55;6.92;;;;;;;19.32;100.00;100907.23;1545154;90;21599;-87
2021/07/07 06:35:41;;;;;;;10.48;7.72;;;;;;;19.32;100.00;100904.59;1605854;88;21085;-85
2021/07/07 06:38:09;;;;;;;9.98;7.65;;;;;;;19.34;100.00;100909.22;1598350;88;21139;-84
2021/07/07 06:40:36;;;;;;;8.38;7.53;;;;;;;19.40;100.00;100915.15;1550958;90;21160;-88
2021/07/07 06:43:05;;;;;;;10.32;7.95;;;;;;;19.44;100.00;100909.85;1579606;88;21840;-87
2021/07/07 06:45:37;;;;;;;9.23;7.08;;;;;;;19.49;100.00;100916.80;1576299;89;21043;-87
2021/07/07 06:48:07;;;;;;;8.65;7.75;;;;;;;19.53;100.00;100918.61;1600151;87;21099;-85
2021/07/07 06:50:35;;;;;;;8.68;7.62;;;;;;;19.53;100.00;100918.61;1599182;88;21051;-88
2021/07/07 06:53:03;;;;;;;8.03;7.03;;;;;;;19.55;100.00;100922.73;1601086;88;21050;-91
2021/07/07 06:55:30;;;;;;;10.35;7.80;;;;;;;19.59;100.00;100923.73;1606791;87;21191;-88
2021/07/07 06:57:57;;;;;;;9.98;6.90;;;;;;;19.63;100.00;100922.38;1585512;88;21746;-86
2021/07/07 07:00:24;;;;;;;11.30;7.62;;;;;;;19.69;100.00;100922.55;1603135;87;21219;-84
2021/07/07 07:02:52;;;;;;;11.35;7.87;;;;;;;19.78;100.00;100925.17;1590261;88;21109;-86
2021/07/07 07:05:20;;;;;;;7.85;7.12;;;;;;;19.82;100.00;100930.44;1605848;86;21068;-86
2021/07/07 07:07:47;;;;;;;8.03;7.03;;;;;;;19.86;100.00;100936.56;1610522;87;21131;-87
2021/07/07 07:10:14;;;;;;;9.75;7.58;;;;;;;19.92;100.00;100935.07;1561895;89;21057;-88
2021/07/07 07:12:42;;;;;;;8.43;7.60;;;;;;;19.97;100.00;100939.85;1586183;88;21141;-87
2021/07/07 07:15:14;;;;;;;9.50;7.35;;;;;;;19.98;100.00;100941.00;1583739;88;21097;-83
2021/07/07 07:17:44;;;;;;;9.83;7.80;;;;;;;20.03;100.00;100938.36;1594291;88;21173;-86
2021/07/07 07:20:15;;;;;;;8.73;7.33;;;;;;;20.10;100.00;100948.06;1584778;88;21236;-87
2021/07/07 07:22:43;;;;;;;11.35;8.30;;;;;;;20.16;100.00;100944.73;1562093;90;21058;-86
2021/07/07 07:25:11;;;;;;;10.00;8.03;;;;;;;20.30;100.00;100949.00;1582331;88;21096;-85
2021/07/07 07:27:39;;;;;;;11.75;7.62;;;;;;;20.37;100.00;100943.34;1589415;87;21100;-86
2021/07/07 07:30:08;;;;;;;14.93;8.45;;;;;;;20.46;100.00;100948.09;1584571;88;21101;-85
2021/07/07 07:32:37;;;;;;;13.18;8.70;;;;;;;20.57;100.00;100946.88;1560742;89;21908;-84
2021/07/07 07:35:05;;;;;;;10.82;7.85;;;;;;;20.70;100.00;100945.83;1584978;89;21178;-85
2021/07/07 07:37:43;;;;;;;10.80;8.28;;;;;;;20.78;100.00;100960.85;1609278;87;21106;-87
2021/07/07 07:40:10;;;;;;;9.68;7.30;;;;;;;20.85;100.00;100956.50;1557125;89;21137;-85
2021/07/07 07:42:44;;;;;;;8.18;7.22;;;;;;;20.98;100.00;100963.87;1580155;87;21272;-88
2021/07/07 07:45:12;;;;;;;8.75;7.22;;;;;;;21.14;100.00;100962.11;1540191;90;21852;-86
2021/07/07 07:47:44;;;;;;;14.63;7.30;;;;;;;21.42;100.00;100974.30;1599457;87;21038;-89
2021/07/07 07:50:14;;;;;;;11.70;7.22;;;;;;;21.42;100.00;100974.30;1591829;87;21520;-91
2021/07/07 07:52:41;;;;;;;14.50;7.17;;;;;;;21.56;100.00;100979.33;1573918;89;21057;-86
2021/07/07 07:55:11;;;;;;;9.80;6.83;;;;;;;21.72;100.00;100981.86;1575986;89;21085;-85
2021/07/07 07:57:40;;;;;;;8.88;6.72;;;;;;;21.85;100.00;100981.23;1593432;87;21157;-88
2021/07/07 08:00:14;;;;;;;9.25;7.08;;;;;;;21.94;100.00;100986.46;1547674;90;21069;-87
2021/07/07 08:02:42;;;;;;;13.58;7.37;;;;;;;22.03;100.00;100992.00;1579602;89;21092;-87
2021/07/07 08:05:13;;;;;;;8.28;6.72;;;;;;;22.10;100.00;100994.24;1577184;89;21121;-86
2021/07/07 08:07:42;;;;;;;8.00;6.40;;;;;;;22.19;100.00;100995.77;1593433;88;21161;-86
2021/07/07 08:10:12;;;;;;;10.10;6.97;;;;;;;22.24;100.00;100995.74;1574900;89;21801;-86
2021/07/07 08:12:42;;;;;;;10.32;6.85;;;;;;;22.25;100.00;100988.92;1597995;87;21120;-90
2021/07/07 08:15:10;;;;;;;9.05;6.05;;;;;;;22.25;100.00;100990.24;1573875;88;21143;-84
2021/07/07 08:17:38;;;;;;;10.40;6.40;;;;;;;22.22;100.00;100990.11;1579324;88;21053;-87
2021/07/07 08:20:08;;;;;;;6.95;5.92;;;;;;;22.21;100.00;100990.30;1578051;89;21128;-88
2021/07/07 08:22:35;;;;;;;11.43;6.30;;;;;;;22.19;100.00;100986.48;1578939;88;21822;-86
2021/07/07 08:25:05;;;;;;;7.87;7.12;;;;;;;22.24;100.00;100987.78;1581908;89;21564;-85
2021/07/07 08:27:32;;;;;;;7.25;6.30;;;;;;;22.26;100.00;100985.78;1577779;87;21053;-85
2021/07/07 08:29:59;;;;;;;10.93;6.58;;;;;;;22.29;100.00;100986.23;1574475;89;21555;-89
2021/07/07 08:32:26;;;;;;;14.85;7.00;;;;;;;22.34;100.00;100990.47;1575511;88;21093;-85
2021/07/07 08:34:53;;;;;;;7.83;6.87;;;;;;;22.40;100.00;100984.12;1601111;89;21225;-85
2021/07/07 08:37:20;;;;;;;12.73;7.03;;;;;;;22.41;100.00;100989.27;1578412;88;21678;-84
2021/07/07 08:39:47;;;;;;;7.80;6.95;;;;;;;22.38;100.00;100993.09;1574394;89;21223;-88
2021/07/07 08:42:16;;;;;;;7.40;6.40;;;;;;;22.30;100.00;100997.17;1590577;87;21152;-85
2021/07/07 08:44:44;;;;;;;10.35;6.92;;;;;;;22.20;100.00;100997.42;1574480;89;21164;-88
2021/07/07 08:47:11;;;;;;;7.65;6.55;;;;;;;22.15;100.00;100995.83;1593158;88;21155;-84
2021/07/07 08:49:38;;;;;;;6.78;6.28;;;;;;;22.11;100.00;100997.70;1576340;88;21266;-86
2021/07/07 08:52:05;;;;;;;8.13;6.42;;;;;;;22.06;100.00;100991.13;1603291;87;21638;-85
2021/07/07 08:54:33;;;;;;;11.73;7.20;;;;;;;22.06;100.00;100996.44;1576491;88;21536;-84
2021/07/07 08:57:08;;;;;;;13.00;7.65;;;;;;;22.08;100.00;100992.75;1591608;87;20986;-86
2021/07/07 08:59:36;;;;;;;12.53;7.10;;;;;;;22.01;100.00;100993.48;1622462;87;21995;-86
2021/07/07 09:02:07;;;;;;;13.18;7.12;;;;;;;21.96;100.00;100996.36;1565815;89;21124;-89
2021/07/07 09:04:44;;;;;;;11.50;7.70;;;;;;;;;;1584553;89;28167;-85
2021/07/07 09:07:17;;;;;;;11.70;7.75;;;;;;;21.92;100.00;101001.20;1600380;88;21066;-87
2021/07/07 09:09:50;;;;;;;8.05;7.20;;;;;;;21.94;100.00;101003.69;1549798;88;21143;-84
2021/07/07 09:12:27;;;;;;;9.53;6.53;;;;;;;21.96;100.00;101010.94;1573249;89;21107;-85
2021/07/07 09:15:08;;;;;;;10.20;7.37;;;;;;;21.93;100.00;101004.17;1561126;89;21157;-89
2021/07/07 09:17:50;;;;;;;11.12;7.33;;;;;;;21.97;100.00;101017.89;1540561;90;21145;-86
2021/07/07 09:20:36;;;;;;;10.70;7.67;;;;;;;22.00;100.00;101013.56;1575736;90;21066;-86
2021/07/07 09:23:21;;;;;;;7.50;6.72;;;;;;;22.07;100.00;101015.80;1547461;91;37286;-87
2021/07/07 09:26:01;;;;;;;10.10;7.37;;;;;;;22.09;100.00;101018.27;1542245;91;21270;-84
2021/07/07 09:28:36;;;;;;;9.88;7.58;;;;;;;22.09;100.00;101018.27;1557766;89;21077;-85
2021/07/07 09:31:32;;;;;;;8.93;7.55;;;;;;;22.07;100.00;101015.80;1551475;91;21062;-85
2021/07/07 09:34:24;;;;;;;7.55;6.70;;;;;;;22.07;100.00;101021.11;1578522;88;21069;-87
2021/07/07 09:36:53;;;;;;;8.80;6.40;;;;;;;22.08;100.00;101016.62;1578586;88;21072;-84
2021/07/07 09:39:31;;;;;;;;;;;;;;;;;;;;;
2021/07/07 09:41:55;;;;;;;;;;;;;;;22.09;100.00;101019.11;1575025;88;21129;-85
2021/07/07 09:44:22;;;;;;;6.50;5.87;;;;;;;22.16;100.00;101020.51;1565374;88;20209;-86
2021/07/07 09:46:50;;;;;;;8.88;6.40;;;;;;;22.20;100.00;101019.96;1573085;88;21112;-87
2021/07/07 09:49:19;;;;;;;6.90;6.30;;;;;;;22.22;100.00;101022.45;1570526;90;21190;-85
2021/07/07 09:51:58;;;;;;;;;;;;;;;;;;;;;
2021/07/07 09:54:22;;;;;;;8.18;7.00;;;;;;;22.16;100.00;101027.98;1567767;90;21113;-88
2021/07/07 09:56:49;;;;;;;6.80;6.10;;;;;;;22.18;100.00;101017.18;1605702;88;21128;-87
2021/07/07 09:59:21;;;;;;;7.45;6.67;;;;;;;22.22;100.00;101025.11;1570010;88;21148;-86
2021/07/07 10:01:48;;;;;;;7.35;6.62;;;;;;;22.28;100.00;101027.02;1602840;88;21630;-87
2021/07/07 10:04:25;;;;;;;7.47;6.58;;;;;;;22.34;100.00;101034.24;1587997;88;21914;-85
2021/07/07 10:06:59;;;;;;;;;;;;;;;;;;;;;
2021/07/07 10:09:18;;;;;;;8.13;6.30;;;;;;;22.41;100.00;101040.16;1561945;90;21161;-87
2021/07/07 10:11:46;;;;;;;9.20;6.60;;;;;;;22.46;100.00;101044.44;1561616;90;21247;-86
2021/07/07 10:16:58;;;;;;;;;;;;;;;;;;;;;
2021/07/07 10:19:24;;;;;;;6.78;6.10;;;;;;;22.62;100.00;101050.03;1669349;84;21560;-88
2021/07/07 10:21:57;;;;;;;6.83;6.22;;;;;;;22.67;100.00;101048.48;1735974;81;21253;-87
2021/07/07 10:24:28;;;;;;;7.50;6.45;;;;;;;22.72;100.00;101049.74;1715663;81;21038;-87
2021/07/07 10:26:59;;;;;;;8.93;6.33;;;;;;;22.76;100.00;101054.50;1714925;81;20974;-88
2021/07/07 12:20:27;;;;;;;;;;;;;;;;;;;;;
2021/07/07 13:08:42;;;;;;;;;;;;;;;;;;;;;
2021/07/07 13:12:02;;;;;;;;;;;;;;;;;;;;;
2021/07/07 14:04:26;;;;;;;;;;;;;;;;;;;;;
2021/07/07 14:06:55;;;;;;;;;;;;;;;;;;;;;
2021/07/07 14:09:25;;;;;;;11.50;7.08;;;;;;;25.34;100.00;101076.45;1563439;87;21183;-88
2021/07/07 14:11:52;;;;;;;7.20;6.55;;;;;;;25.36;100.00;101076.55;1680501;83;21079;-90
2021/07/07 14:14:31;;;;;;;;;;;;;;;;;;;;;
2021/07/07 14:17:04;;;;;;;7.42;6.72;;;;;;;25.45;100.00;101090.52;1673117;83;21034;-87
2021/07/07 14:19:38;;;;;;;;;;;;;;;;;;;;;
2021/07/07 14:22:03;;;;;;;8.10;7.33;;;;;;;25.53;100.00;101076.69;1764937;80;20987;-93
2021/07/07 14:24:38;;;;;;;7.58;6.55;;;;;;;25.61;100.00;101076.48;1737418;79;21118;-90
2021/07/07 14:27:12;;;;;;;7.55;6.20;;;;;;;25.69;100.00;101078.15;1773367;79;21577;-89
2021/07/07 14:29:50;;;;;;;;;;;;;;;;;;;;;
2021/07/07 14:32:14;;;;;;;8.78;6.10;;;;;;;25.79;100.00;101079.38;1633776;85;21061;-90
2021/07/07 14:34:45;;;;;;;10.05;6.17;;;;;;;25.88;100.00;101079.17;1626229;86;21106;-91
2021/07/07 14:37:30;;;;;;;;;;;;;;;;;;;;;
2021/07/07 14:39:55;;;;;;;8.65;6.75;;;;;;;26.02;100.00;101093.33;1585554;87;21599;-92
2021/07/07 14:42:30;;;;;;;8.60;6.65;;;;;;;26.10;100.00;101089.95;1639972;86;21097;-88
2021/07/07 14:44:57;;;;;;;8.65;7.25;;;;;;;26.19;100.00;101093.23;1662553;83;21081;-92
2021/07/07 14:47:28;;;;;;;8.35;7.53;;;;;;;26.34;100.00;101085.51;1688111;83;21168;-87
2021/07/07 14:50:00;;;;;;;8.55;7.62;;;;;;;26.43;100.00;101084.25;1667720;84;21529;-88
2021/07/07 14:52:31;;;;;;;7.60;6.97;;;;;;;26.44;100.00;101086.70;1661855;84;21046;-88
2021/07/07 14:55:09;;;;;;;;;;;;;;;;;;;;;
2021/07/07 14:57:44;;;;;;;;;;;;;;;;;;;;;
2021/07/07 15:00:16;;;;;;;12.95;9.73;;;;;;;26.40;100.00;101080.13;1542823;90;21125;-91
2021/07/07 15:02:53;;;;;;;;;;;;;;;;;;;;;
2021/07/07 15:05:23;;;;;;;;;;;;;;;;;;;;;
2021/07/07 15:07:57;;;;;;;;;;;;;;;;;;;;;
2021/07/07 15:10:22;;;;;;;10.30;7.55;;;;;;;26.27;100.00;101080.17;1580171;89;21076;-89
2021/07/07 15:12:53;;;;;;;9.00;7.22;;;;;;;26.18;100.00;101089.42;1593302;87;21144;-90
2021/07/07 15:15:21;;;;;;;10.98;7.92;;;;;;;26.10;100.00;101090.48;1665988;83;21151;-90
2021/07/07 15:18:30;;;;;;;;;;;;;;;;;;;;;
2021/07/07 15:20:46;;;;;;;;;;;;;;;;;;;;;
2021/07/07 15:23:24;;;;;;;;;;;;;;;;;;;;;
2021/07/07 15:26:25;;;;;;;;;;;;;;;;;;;;;
2021/07/07 15:29:15;;;;;;;;;;;;;;;;;;;;;
2021/07/07 15:31:59;;;;;;;;;;;;;;;;;;;;;
2021/07/07 15:42:26;;;;;;;;;;;;;;;;;;;;;
2021/07/07 15:45:50;;;;;;;8.73;7.90;;;;;;;25.74;100.00;101108.52;1283089;110;21788;-93
2021/07/07 15:48:47;;;;;;;12.75;8.70;;;;;;;25.66;100.00;101104.19;1285631;106;21144;-89
2021/07/07 15:51:29;;;;;;;;;;;;;;;;;;;;;
2021/07/07 15:54:11;;;;;;;;;;;;;;;;;;;;;
2021/07/07 15:57:07;;;;;;;;;;;;;;;;;;;;;